Amenia, North Dakota
Current Conditions -  °F | °C
As of 6:53 PM on Tuesday 21 Oct 2014 (Local Time) from KFAR Reporting Station
Clear Clear  
Wind Chill: 16°   Ceiling: Unl
Heat Index: 16°   Visibility: 10mi
Dew Point:   Wind: 23mph
Humidity: 48%   Direction: 140°SE
Pressure: 29.9"   Gusts: 36mph
Location:  47°N, 97.22°W
Report Text: KFAR 212353Z 14020G31KT 10SM CLR 16/05 A2990 RMK AO2 PK WND 14033/2311 SLP127 60000 T01610050 10194 20161 53001
Loading
Personal Weather Stations






























Interactive Weather Map
Tropical Storm Tracking
New forecast layout! Learn more

10-Day Weather Forecast

Advertisements
Track Severe Weather on mobile